sensor_id;sensor_type;location;lat;lon;timestamp;P1;durP1;ratioP1;P2;durP2;ratioP2
54679;SDS011;40578;53.178;5.846;2023-04-03T00:02:07;3.75;;;1.98;;
54679;SDS011;40578;53.178;5.846;2023-04-03T00:04:32;4.47;;;2.27;;
54679;SDS011;40578;53.178;5.846;2023-04-03T00:06:58;5.03;;;2.23;;
54679;SDS011;40578;53.178;5.846;2023-04-03T00:09:24;3.70;;;2.40;;
54679;SDS011;40578;53.178;5.846;2023-04-03T00:11:50;3.80;;;2.03;;
54679;SDS011;40578;53.178;5.846;2023-04-03T00:14:15;5.17;;;2.30;;
54679;SDS011;40578;53.178;5.846;2023-04-03T00:16:41;5.17;;;3.00;;
54679;SDS011;40578;53.178;5.846;2023-04-03T00:19:07;4.47;;;2.30;;
54679;SDS011;40578;53.178;5.846;2023-04-03T00:21:33;6.05;;;2.47;;
54679;SDS011;40578;53.178;5.846;2023-04-03T00:23:58;6.03;;;2.43;;
54679;SDS011;40578;53.178;5.846;2023-04-03T00:26:24;5.37;;;2.37;;
54679;SDS011;40578;53.178;5.846;2023-04-03T00:28:49;5.63;;;3.07;;
54679;SDS011;40578;53.178;5.846;2023-04-03T00:31:15;4.53;;;2.57;;
54679;SDS011;40578;53.178;5.846;2023-04-03T00:33:41;4.65;;;2.63;;
54679;SDS011;40578;53.178;5.846;2023-04-03T00:36:08;4.33;;;2.53;;
54679;SDS011;40578;53.178;5.846;2023-04-03T00:38:35;4.93;;;2.90;;
54679;SDS011;40578;53.178;5.846;2023-04-03T00:41:01;4.55;;;2.40;;
54679;SDS011;40578;53.178;5.846;2023-04-03T00:43:27;5.50;;;3.00;;
54679;SDS011;40578;53.178;5.846;2023-04-03T00:45:54;5.82;;;2.65;;
54679;SDS011;40578;53.178;5.846;2023-04-03T00:50:55;5.28;;;2.40;;
54679;SDS011;40578;53.178;5.846;2023-04-03T00:53:23;4.60;;;2.60;;
54679;SDS011;40578;53.178;5.846;2023-04-03T00:55:51;4.40;;;2.60;;
54679;SDS011;40578;53.178;5.846;2023-04-03T00:58:20;6.22;;;2.60;;
54679;SDS011;40578;53.178;5.846;2023-04-03T01:00:53;4.97;;;2.55;;
54679;SDS011;40578;53.178;5.846;2023-04-03T01:03:22;5.95;;;3.10;;
54679;SDS011;40578;53.178;5.846;2023-04-03T01:05:48;5.43;;;2.63;;
54679;SDS011;40578;53.178;5.846;2023-04-03T01:08:15;4.95;;;2.17;;
54679;SDS011;40578;53.178;5.846;2023-04-03T01:10:41;4.90;;;2.60;;
54679;SDS011;40578;53.178;5.846;2023-04-03T01:13:20;4.97;;;2.38;;
54679;SDS011;40578;53.178;5.846;2023-04-03T01:15:51;4.90;;;2.25;;
54679;SDS011;40578;53.178;5.846;2023-04-03T01:18:17;4.78;;;2.20;;
54679;SDS011;40578;53.178;5.846;2023-04-03T01:21:08;4.40;;;2.27;;
54679;SDS011;40578;53.178;5.846;2023-04-03T01:26:43;4.95;;;2.40;;
54679;SDS011;40578;53.178;5.846;2023-04-03T01:29:09;5.60;;;2.00;;
54679;SDS011;40578;53.178;5.846;2023-04-03T01:31:52;3.75;;;1.90;;
54679;SDS011;40578;53.178;5.846;2023-04-03T01:34:22;4.80;;;1.80;;
54679;SDS011;40578;53.178;5.846;2023-04-03T01:36:48;5.45;;;2.15;;
54679;SDS011;40578;53.178;5.846;2023-04-03T01:39:14;3.47;;;1.53;;
54679;SDS011;40578;53.178;5.846;2023-04-03T01:41:39;5.30;;;1.83;;
54679;SDS011;40578;53.178;5.846;2023-04-03T01:44:05;6.13;;;2.00;;
54679;SDS011;40578;53.178;5.846;2023-04-03T01:46:31;3.43;;;1.77;;
54679;SDS011;40578;53.178;5.846;2023-04-03T01:48:56;4.83;;;1.90;;
54679;SDS011;40578;53.178;5.846;2023-04-03T01:51:22;3.95;;;1.90;;
54679;SDS011;40578;53.178;5.846;2023-04-03T01:53:48;4.87;;;2.00;;
54679;SDS011;40578;53.178;5.846;2023-04-03T01:56:14;4.50;;;1.80;;
54679;SDS011;40578;53.178;5.846;2023-04-03T01:58:40;2.95;;;1.63;;
54679;SDS011;40578;53.178;5.846;2023-04-03T02:01:06;3.03;;;1.60;;
54679;SDS011;40578;53.178;5.846;2023-04-03T02:03:31;4.30;;;1.80;;
54679;SDS011;40578;53.178;5.846;2023-04-03T02:05:57;4.60;;;1.60;;
54679;SDS011;40578;53.178;5.846;2023-04-03T02:08:23;6.87;;;1.83;;
54679;SDS011;40578;53.178;5.846;2023-04-03T02:10:49;3.13;;;1.70;;
54679;SDS011;40578;53.178;5.846;2023-04-03T02:13:15;3.95;;;1.77;;
54679;SDS011;40578;53.178;5.846;2023-04-03T02:18:08;4.80;;;1.87;;
54679;SDS011;40578;53.178;5.846;2023-04-03T02:20:33;4.22;;;2.65;;
54679;SDS011;40578;53.178;5.846;2023-04-03T02:23:00;3.17;;;1.80;;
54679;SDS011;40578;53.178;5.846;2023-04-03T02:25:26;5.22;;;1.88;;
54679;SDS011;40578;53.178;5.846;2023-04-03T02:27:52;4.20;;;2.30;;
54679;SDS011;40578;53.178;5.846;2023-04-03T02:30:17;7.17;;;2.00;;
54679;SDS011;40578;53.178;5.846;2023-04-03T02:32:43;4.23;;;1.90;;
54679;SDS011;40578;53.178;5.846;2023-04-03T02:35:09;3.30;;;1.70;;
54679;SDS011;40578;53.178;5.846;2023-04-03T02:37:36;4.27;;;1.87;;
54679;SDS011;40578;53.178;5.846;2023-04-03T02:40:02;5.05;;;2.22;;
54679;SDS011;40578;53.178;5.846;2023-04-03T02:42:28;5.90;;;2.03;;
54679;SDS011;40578;53.178;5.846;2023-04-03T02:44:54;6.80;;;1.90;;
54679;SDS011;40578;53.178;5.846;2023-04-03T02:47:20;4.53;;;2.22;;
54679;SDS011;40578;53.178;5.846;2023-04-03T02:49:46;4.23;;;1.93;;
54679;SDS011;40578;53.178;5.846;2023-04-03T02:52:14;6.07;;;1.87;;
54679;SDS011;40578;53.178;5.846;2023-04-03T02:54:40;3.97;;;1.70;;
54679;SDS011;40578;53.178;5.846;2023-04-03T02:57:06;3.75;;;2.00;;
54679;SDS011;40578;53.178;5.846;2023-04-03T02:59:34;5.50;;;1.70;;
54679;SDS011;40578;53.178;5.846;2023-04-03T03:02:06;4.00;;;1.70;;
54679;SDS011;40578;53.178;5.846;2023-04-03T03:04:32;4.93;;;1.67;;
54679;SDS011;40578;53.178;5.846;2023-04-03T03:06:58;4.43;;;1.60;;
54679;SDS011;40578;53.178;5.846;2023-04-03T03:09:24;4.67;;;2.00;;
54679;SDS011;40578;53.178;5.846;2023-04-03T03:11:52;4.70;;;1.80;;
54679;SDS011;40578;53.178;5.846;2023-04-03T03:14:18;5.00;;;1.70;;
54679;SDS011;40578;53.178;5.846;2023-04-03T03:16:44;4.23;;;1.63;;
54679;SDS011;40578;53.178;5.846;2023-04-03T03:19:09;4.03;;;2.10;;
54679;SDS011;40578;53.178;5.846;2023-04-03T03:21:35;5.68;;;2.10;;
54679;SDS011;40578;53.178;5.846;2023-04-03T03:24:01;4.23;;;1.80;;
54679;SDS011;40578;53.178;5.846;2023-04-03T03:26:27;7.50;;;1.70;;
54679;SDS011;40578;53.178;5.846;2023-04-03T03:28:53;7.40;;;2.30;;
54679;SDS011;40578;53.178;5.846;2023-04-03T03:31:18;4.17;;;1.73;;
54679;SDS011;40578;53.178;5.846;2023-04-03T03:33:44;5.07;;;1.97;;
54679;SDS011;40578;53.178;5.846;2023-04-03T03:36:10;5.10;;;1.90;;
54679;SDS011;40578;53.178;5.846;2023-04-03T03:38:36;7.70;;;2.07;;
54679;SDS011;40578;53.178;5.846;2023-04-03T03:41:02;4.65;;;2.20;;
54679;SDS011;40578;53.178;5.846;2023-04-03T03:43:28;3.25;;;1.70;;
54679;SDS011;40578;53.178;5.846;2023-04-03T03:45:53;4.67;;;2.30;;
54679;SDS011;40578;53.178;5.846;2023-04-03T03:48:20;5.40;;;1.97;;
54679;SDS011;40578;53.178;5.846;2023-04-03T03:53:13;3.97;;;2.10;;
54679;SDS011;40578;53.178;5.846;2023-04-03T03:58:04;5.77;;;2.30;;
54679;SDS011;40578;53.178;5.846;2023-04-03T04:00:30;4.37;;;2.13;;
54679;SDS011;40578;53.178;5.846;2023-04-03T04:02:55;6.07;;;2.43;;
54679;SDS011;40578;53.178;5.846;2023-04-03T04:05:21;4.97;;;2.17;;
54679;SDS011;40578;53.178;5.846;2023-04-03T04:07:47;5.22;;;2.13;;
54679;SDS011;40578;53.178;5.846;2023-04-03T04:10:12;4.83;;;2.23;;
54679;SDS011;40578;53.178;5.846;2023-04-03T04:12:38;5.47;;;2.20;;
54679;SDS011;40578;53.178;5.846;2023-04-03T04:15:04;6.47;;;2.20;;
54679;SDS011;40578;53.178;5.846;2023-04-03T04:17:30;10.18;;;2.42;;
54679;SDS011;40578;53.178;5.846;2023-04-03T04:19:56;8.20;;;2.40;;
54679;SDS011;40578;53.178;5.846;2023-04-03T04:22:21;8.20;;;3.10;;
54679;SDS011;40578;53.178;5.846;2023-04-03T04:24:47;8.13;;;2.20;;
54679;SDS011;40578;53.178;5.846;2023-04-03T04:27:13;7.90;;;2.10;;
54679;SDS011;40578;53.178;5.846;2023-04-03T04:29:38;7.20;;;2.27;;
54679;SDS011;40578;53.178;5.846;2023-04-03T04:32:05;7.13;;;2.13;;
54679;SDS011;40578;53.178;5.846;2023-04-03T04:34:30;6.63;;;2.50;;
54679;SDS011;40578;53.178;5.846;2023-04-03T04:36:56;5.87;;;2.20;;
54679;SDS011;40578;53.178;5.846;2023-04-03T04:39:22;6.60;;;2.53;;
54679;SDS011;40578;53.178;5.846;2023-04-03T04:41:47;5.23;;;2.60;;
54679;SDS011;40578;53.178;5.846;2023-04-03T04:44:13;7.07;;;2.53;;
54679;SDS011;40578;53.178;5.846;2023-04-03T04:46:39;5.22;;;2.30;;
54679;SDS011;40578;53.178;5.846;2023-04-03T04:49:05;6.00;;;2.50;;
54679;SDS011;40578;53.178;5.846;2023-04-03T04:51:30;7.97;;;2.80;;
54679;SDS011;40578;53.178;5.846;2023-04-03T04:53:56;7.57;;;2.60;;
54679;SDS011;40578;53.178;5.846;2023-04-03T04:56:22;6.07;;;2.43;;
54679;SDS011;40578;53.178;5.846;2023-04-03T04:58:47;7.73;;;2.70;;
54679;SDS011;40578;53.178;5.846;2023-04-03T05:01:13;8.43;;;2.90;;
54679;SDS011;40578;53.178;5.846;2023-04-03T05:03:39;5.30;;;2.47;;
54679;SDS011;40578;53.178;5.846;2023-04-03T05:06:05;7.77;;;2.83;;
54679;SDS011;40578;53.178;5.846;2023-04-03T05:08:31;16.67;;;3.70;;
54679;SDS011;40578;53.178;5.846;2023-04-03T05:10:56;7.35;;;2.90;;
54679;SDS011;40578;53.178;5.846;2023-04-03T05:13:22;7.93;;;2.53;;
54679;SDS011;40578;53.178;5.846;2023-04-03T05:15:48;4.80;;;2.50;;
54679;SDS011;40578;53.178;5.846;2023-04-03T05:18:13;8.00;;;2.97;;
54679;SDS011;40578;53.178;5.846;2023-04-03T05:20:39;5.97;;;2.70;;
54679;SDS011;40578;53.178;5.846;2023-04-03T05:23:05;7.60;;;3.23;;
54679;SDS011;40578;53.178;5.846;2023-04-03T05:25:31;6.22;;;2.55;;
54679;SDS011;40578;53.178;5.846;2023-04-03T05:27:56;8.03;;;3.13;;
54679;SDS011;40578;53.178;5.846;2023-04-03T05:30:22;8.30;;;3.05;;
54679;SDS011;40578;53.178;5.846;2023-04-03T05:32:48;5.87;;;3.00;;
54679;SDS011;40578;53.178;5.846;2023-04-03T05:35:14;8.30;;;3.57;;
54679;SDS011;40578;53.178;5.846;2023-04-03T05:37:40;11.57;;;3.95;;
54679;SDS011;40578;53.178;5.846;2023-04-03T05:40:06;7.73;;;3.50;;
54679;SDS011;40578;53.178;5.846;2023-04-03T05:44:58;9.53;;;3.53;;
54679;SDS011;40578;53.178;5.846;2023-04-03T05:47:23;8.63;;;4.20;;
54679;SDS011;40578;53.178;5.846;2023-04-03T05:49:49;8.40;;;3.00;;
54679;SDS011;40578;53.178;5.846;2023-04-03T05:52:23;6.37;;;2.93;;
54679;SDS011;40578;53.178;5.846;2023-04-03T05:57:18;7.97;;;3.20;;
54679;SDS011;40578;53.178;5.846;2023-04-03T05:59:44;10.37;;;3.30;;
54679;SDS011;40578;53.178;5.846;2023-04-03T06:02:12;7.97;;;3.13;;
54679;SDS011;40578;53.178;5.846;2023-04-03T06:04:39;8.70;;;3.00;;
54679;SDS011;40578;53.178;5.846;2023-04-03T06:07:05;9.53;;;3.43;;
54679;SDS011;40578;53.178;5.846;2023-04-03T06:09:32;6.77;;;3.20;;
54679;SDS011;40578;53.178;5.846;2023-04-03T06:11:59;9.27;;;3.50;;
54679;SDS011;40578;53.178;5.846;2023-04-03T06:14:25;5.47;;;3.00;;
54679;SDS011;40578;53.178;5.846;2023-04-03T06:16:52;6.38;;;4.00;;
54679;SDS011;40578;53.178;5.846;2023-04-03T06:19:17;6.28;;;2.90;;
54679;SDS011;40578;53.178;5.846;2023-04-03T06:21:43;8.60;;;3.40;;
54679;SDS011;40578;53.178;5.846;2023-04-03T06:24:09;12.63;;;4.05;;
54679;SDS011;40578;53.178;5.846;2023-04-03T06:26:39;6.70;;;2.90;;
54679;SDS011;40578;53.178;5.846;2023-04-03T06:29:05;6.50;;;3.30;;
54679;SDS011;40578;53.178;5.846;2023-04-03T06:31:30;8.23;;;3.20;;
54679;SDS011;40578;53.178;5.846;2023-04-03T06:33:56;8.80;;;3.43;;
54679;SDS011;40578;53.178;5.846;2023-04-03T06:36:22;8.63;;;3.17;;
54679;SDS011;40578;53.178;5.846;2023-04-03T06:38:47;9.37;;;3.43;;
54679;SDS011;40578;53.178;5.846;2023-04-03T06:41:13;7.57;;;3.47;;
54679;SDS011;40578;53.178;5.846;2023-04-03T06:43:41;8.83;;;3.43;;
54679;SDS011;40578;53.178;5.846;2023-04-03T06:46:10;6.47;;;2.85;;
54679;SDS011;40578;53.178;5.846;2023-04-03T06:48:39;8.00;;;3.20;;
54679;SDS011;40578;53.178;5.846;2023-04-03T06:51:05;9.83;;;3.10;;
54679;SDS011;40578;53.178;5.846;2023-04-03T06:53:30;7.87;;;2.93;;
54679;SDS011;40578;53.178;5.846;2023-04-03T06:55:56;7.47;;;3.23;;
54679;SDS011;40578;53.178;5.846;2023-04-03T06:58:21;8.97;;;3.37;;
54679;SDS011;40578;53.178;5.846;2023-04-03T07:00:47;8.97;;;3.20;;
54679;SDS011;40578;53.178;5.846;2023-04-03T07:03:13;8.97;;;3.30;;
54679;SDS011;40578;53.178;5.846;2023-04-03T07:05:38;6.90;;;3.27;;
54679;SDS011;40578;53.178;5.846;2023-04-03T07:08:04;9.57;;;3.10;;
54679;SDS011;40578;53.178;5.846;2023-04-03T07:10:29;7.97;;;3.30;;
54679;SDS011;40578;53.178;5.846;2023-04-03T07:12:55;6.90;;;3.10;;
54679;SDS011;40578;53.178;5.846;2023-04-03T07:15:21;10.80;;;3.10;;
54679;SDS011;40578;53.178;5.846;2023-04-03T07:17:47;11.10;;;3.00;;
54679;SDS011;40578;53.178;5.846;2023-04-03T07:20:12;8.40;;;3.47;;
54679;SDS011;40578;53.178;5.846;2023-04-03T07:22:38;6.70;;;3.00;;
54679;SDS011;40578;53.178;5.846;2023-04-03T07:25:04;6.30;;;3.33;;
54679;SDS011;40578;53.178;5.846;2023-04-03T07:27:32;8.63;;;3.15;;
54679;SDS011;40578;53.178;5.846;2023-04-03T07:29:58;9.02;;;3.00;;
54679;SDS011;40578;53.178;5.846;2023-04-03T07:32:23;7.40;;;3.03;;
54679;SDS011;40578;53.178;5.846;2023-04-03T07:34:49;6.32;;;3.20;;
54679;SDS011;40578;53.178;5.846;2023-04-03T07:37:16;8.50;;;2.80;;
54679;SDS011;40578;53.178;5.846;2023-04-03T07:39:45;6.82;;;2.47;;
54679;SDS011;40578;53.178;5.846;2023-04-03T07:42:11;7.68;;;2.92;;
54679;SDS011;40578;53.178;5.846;2023-04-03T07:44:38;7.95;;;2.60;;
54679;SDS011;40578;53.178;5.846;2023-04-03T07:47:03;6.70;;;2.77;;
54679;SDS011;40578;53.178;5.846;2023-04-03T07:49:29;8.23;;;2.57;;
54679;SDS011;40578;53.178;5.846;2023-04-03T07:51:55;5.33;;;2.67;;
54679;SDS011;40578;53.178;5.846;2023-04-03T07:54:20;6.23;;;2.87;;
54679;SDS011;40578;53.178;5.846;2023-04-03T07:56:46;5.03;;;2.43;;
54679;SDS011;40578;53.178;5.846;2023-04-03T07:59:11;7.40;;;2.43;;
54679;SDS011;40578;53.178;5.846;2023-04-03T08:01:37;7.17;;;2.83;;
54679;SDS011;40578;53.178;5.846;2023-04-03T08:04:03;9.53;;;2.73;;
54679;SDS011;40578;53.178;5.846;2023-04-03T08:06:28;6.70;;;2.23;;
54679;SDS011;40578;53.178;5.846;2023-04-03T08:08:56;6.47;;;2.10;;
54679;SDS011;40578;53.178;5.846;2023-04-03T08:11:23;5.95;;;2.20;;
54679;SDS011;40578;53.178;5.846;2023-04-03T08:13:51;3.35;;;2.00;;
54679;SDS011;40578;53.178;5.846;2023-04-03T08:16:17;6.20;;;2.00;;
54679;SDS011;40578;53.178;5.846;2023-04-03T08:18:45;8.30;;;2.45;;
54679;SDS011;40578;53.178;5.846;2023-04-03T08:21:11;3.77;;;1.80;;
54679;SDS011;40578;53.178;5.846;2023-04-03T08:23:38;4.45;;;1.80;;
54679;SDS011;40578;53.178;5.846;2023-04-03T08:26:09;5.95;;;2.10;;
54679;SDS011;40578;53.178;5.846;2023-04-03T08:28:39;5.07;;;1.88;;
54679;SDS011;40578;53.178;5.846;2023-04-03T08:31:06;4.65;;;1.90;;
54679;SDS011;40578;53.178;5.846;2023-04-03T08:33:33;9.65;;;2.58;;
54679;SDS011;40578;53.178;5.846;2023-04-03T08:36:01;4.82;;;2.35;;
54679;SDS011;40578;53.178;5.846;2023-04-03T08:38:31;3.83;;;1.48;;
54679;SDS011;40578;53.178;5.846;2023-04-03T08:41:02;3.80;;;1.43;;
54679;SDS011;40578;53.178;5.846;2023-04-03T08:45:55;4.43;;;1.83;;
54679;SDS011;40578;53.178;5.846;2023-04-03T08:48:33;4.00;;;1.73;;
54679;SDS011;40578;53.178;5.846;2023-04-03T08:51:03;4.78;;;1.50;;
54679;SDS011;40578;53.178;5.846;2023-04-03T08:53:36;5.65;;;1.55;;
54679;SDS011;40578;53.178;5.846;2023-04-03T08:56:07;5.75;;;1.70;;
54679;SDS011;40578;53.178;5.846;2023-04-03T08:58:41;3.38;;;1.70;;
54679;SDS011;40578;53.178;5.846;2023-04-03T09:01:23;4.65;;;1.60;;
54679;SDS011;40578;53.178;5.846;2023-04-03T09:03:54;3.63;;;1.45;;
54679;SDS011;40578;53.178;5.846;2023-04-03T09:06:21;5.63;;;1.73;;
